createdAt,value
2019-03-17T00:04:56.717Z,60.50
2019-03-17T00:15:05.813Z,61.30
2019-03-17T00:25:10.081Z,61.70
2019-03-17T00:35:15.824Z,62.20
2019-03-17T00:45:20.900Z,62.60
2019-03-17T00:55:25.982Z,63.40
2019-03-17T01:05:31.615Z,64.10
2019-03-17T01:15:36.863Z,64.80
2019-03-17T01:25:41.899Z,64.80
2019-03-17T01:35:47.233Z,64.40
2019-03-17T01:45:52.707Z,64.30
2019-03-17T01:55:57.759Z,64.30
2019-03-17T02:06:02.816Z,64.30
2019-03-17T02:16:07.927Z,64.70
2019-03-17T02:26:13.339Z,65.20
2019-03-17T02:36:18.918Z,65.00
2019-03-17T02:46:23.977Z,65.00
2019-03-17T02:56:29.308Z,65.20
2019-03-17T03:06:34.693Z,64.90
2019-03-17T03:16:40.008Z,64.60
2019-03-17T03:26:45.061Z,64.30
2019-03-17T03:36:50.342Z,64.00
2019-03-17T03:46:55.703Z,64.00
2019-03-17T03:57:00.994Z,64.00
2019-03-17T04:07:06.994Z,64.10
2019-03-17T04:17:12.506Z,64.00
2019-03-17T04:27:17.555Z,64.10
2019-03-17T04:37:22.684Z,63.80
2019-03-17T04:47:27.744Z,63.70
2019-03-17T04:57:33.110Z,63.70
2019-03-17T05:07:38.595Z,63.90
2019-03-17T05:17:43.697Z,63.90
2019-03-17T05:27:48.758Z,64.20
2019-03-17T05:37:54.099Z,65.10
2019-03-17T05:47:59.175Z,64.50
2019-03-17T05:58:04.230Z,64.50
2019-03-17T06:08:09.283Z,64.30
2019-03-17T06:18:14.346Z,64.00
2019-03-17T06:28:21.564Z,64.30
2019-03-17T06:38:26.478Z,64.50
2019-03-17T06:48:32.013Z,64.10
2019-03-17T06:58:37.162Z,63.80
2019-03-17T07:08:42.251Z,63.50
2019-03-17T07:18:47.835Z,63.10
2019-03-17T07:28:52.899Z,62.70
2019-03-17T07:39:10.856Z,62.10
2019-03-17T07:49:13.552Z,61.70
2019-03-17T07:59:23.674Z,60.90
2019-03-17T08:09:29.020Z,59.80
2019-03-17T08:19:34.170Z,59.20
2019-03-17T08:29:39.275Z,58.70
2019-03-17T08:39:44.364Z,58.10
2019-03-17T08:49:49.423Z,57.50
2019-03-17T08:59:54.734Z,56.00
2019-03-17T09:09:59.849Z,55.20
2019-03-17T09:20:05.433Z,54.70
2019-03-17T09:30:11.798Z,53.50
2019-03-17T09:40:16.967Z,53.40
2019-03-17T09:50:22.191Z,52.70
2019-03-17T10:00:27.246Z,52.20
2019-03-17T10:10:32.354Z,51.00
2019-03-17T10:20:37.680Z,51.60
2019-03-17T10:30:42.835Z,50.90
2019-03-17T10:40:47.923Z,50.40
2019-03-17T10:50:53.534Z,50.40
2019-03-17T11:00:58.715Z,49.40
2019-03-17T11:11:03.830Z,48.70
2019-03-17T11:21:09.202Z,47.80
2019-03-17T11:31:14.503Z,47.80
2019-03-17T11:41:19.610Z,48.40
2019-03-17T11:51:24.698Z,48.70
2019-03-17T12:01:30.856Z,49.10
2019-03-17T12:11:36.007Z,49.40
2019-03-17T12:21:41.146Z,50.00
2019-03-17T12:31:46.551Z,51.50
2019-03-17T12:41:51.707Z,53.20
2019-03-17T12:51:56.891Z,55.10
2019-03-17T13:02:01.997Z,55.80
2019-03-17T13:12:07.572Z,56.70
2019-03-17T13:22:12.679Z,57.70
2019-03-17T13:32:17.778Z,58.20
2019-03-17T13:42:23.102Z,58.80
2019-03-17T13:52:28.263Z,58.50
2019-03-17T14:02:33.365Z,59.10
2019-03-17T14:12:38.461Z,60.50
2019-03-17T14:22:43.811Z,61.10
2019-03-17T14:32:48.870Z,61.20
2019-03-17T14:42:55.647Z,62.00
2019-03-17T14:53:01.064Z,62.30
2019-03-17T15:03:06.555Z,62.70
2019-03-17T15:13:11.893Z,63.00
2019-03-17T15:23:16.962Z,62.50
2019-03-17T15:33:22.029Z,61.90
2019-03-17T15:43:27.383Z,61.50
2019-03-17T15:53:32.468Z,61.10
2019-03-17T16:03:37.671Z,60.40
2019-03-17T16:13:42.837Z,59.80
2019-03-17T16:23:48.197Z,59.40
2019-03-17T16:33:53.347Z,59.20
2019-03-17T16:43:58.723Z,58.80
2019-03-17T16:54:04.057Z,58.60
2019-03-17T17:04:09.231Z,58.50
2019-03-17T17:14:14.440Z,58.50
2019-03-17T17:24:19.994Z,58.50
2019-03-17T17:34:25.102Z,58.50
2019-03-17T17:44:30.175Z,58.60
2019-03-17T17:54:35.500Z,58.50
2019-03-17T18:04:40.575Z,58.70
2019-03-17T18:14:45.870Z,59.00
2019-03-17T18:24:50.967Z,59.20
2019-03-17T18:34:56.066Z,59.10
2019-03-17T18:45:01.185Z,59.30
2019-03-17T18:55:06.419Z,59.30
2019-03-17T19:05:12.053Z,59.40
2019-03-17T19:15:17.254Z,59.40
2019-03-17T19:25:22.355Z,59.60
2019-03-17T19:35:27.443Z,59.50
2019-03-17T19:45:32.531Z,59.70
2019-03-17T19:55:37.881Z,59.80
2019-03-17T20:05:43.218Z,59.60
2019-03-17T20:15:48.511Z,59.70
2019-03-17T20:25:53.849Z,59.60
2019-03-17T20:35:59.743Z,59.60
2019-03-17T20:46:04.807Z,59.80
2019-03-17T20:56:09.881Z,60.00
2019-03-17T21:06:15.005Z,60.10
2019-03-17T21:16:20.108Z,60.30
2019-03-17T21:26:25.486Z,60.80
2019-03-17T21:36:30.590Z,60.30
2019-03-17T21:46:35.682Z,60.80
2019-03-17T21:56:41.062Z,62.20
2019-03-17T22:06:46.392Z,62.40
2019-03-17T22:16:51.575Z,61.70
2019-03-17T22:26:56.882Z,62.30
2019-03-17T22:37:02.066Z,61.50
2019-03-17T22:47:07.131Z,61.60
2019-03-17T22:57:12.293Z,61.80
2019-03-17T23:07:17.408Z,61.90
2019-03-17T23:17:22.459Z,62.40
2019-03-17T23:27:27.636Z,62.40
2019-03-17T23:37:33.024Z,62.60
2019-03-17T23:47:38.089Z,62.30
2019-03-17T23:57:43.229Z,62.20
